createdAt,value
2022-10-02T00:02:13.652Z,4.65
2022-10-02T00:04:53.406Z,4.55
2022-10-02T00:07:24.809Z,4.18
2022-10-02T00:12:21.969Z,4.13
2022-10-02T00:14:50.678Z,4.13
2022-10-02T00:17:38.604Z,4.85
2022-10-02T00:20:12.661Z,4.82
2022-10-02T00:22:48.614Z,4.57
2022-10-02T00:25:30.413Z,4.47
2022-10-02T00:28:18.126Z,4.68
2022-10-02T00:31:02.837Z,4.22
2022-10-02T00:33:43.110Z,4.43
2022-10-02T00:36:45.060Z,4.93
2022-10-02T00:39:27.210Z,5.60
2022-10-02T00:42:18.484Z,4.63
2022-10-02T00:45:23.415Z,4.50
2022-10-02T00:47:54.928Z,5.20
2022-10-02T00:50:40.418Z,4.57
2022-10-02T00:53:18.951Z,4.93
2022-10-02T00:55:54.267Z,4.53
2022-10-02T00:58:41.634Z,5.40
2022-10-02T01:01:09.703Z,5.55
2022-10-02T01:03:44.183Z,4.97
2022-10-02T01:06:11.392Z,4.80
2022-10-02T01:08:38.392Z,5.72
2022-10-02T01:11:06.511Z,5.95
2022-10-02T01:13:34.058Z,5.03
2022-10-02T01:16:00.911Z,5.28
2022-10-02T01:18:29.582Z,4.63
2022-10-02T01:21:19.387Z,5.13
2022-10-02T01:23:52.222Z,4.75
2022-10-02T01:26:18.877Z,4.90
2022-10-02T01:28:45.811Z,5.10
2022-10-02T01:31:14.576Z,4.70
2022-10-02T01:33:42.955Z,5.82
2022-10-02T01:36:10.986Z,5.32
2022-10-02T01:38:38.322Z,5.15
2022-10-02T01:41:05.024Z,4.85
2022-10-02T01:43:34.570Z,4.93
2022-10-02T01:46:19.706Z,5.65
2022-10-02T01:49:20.009Z,4.70
2022-10-02T01:52:23.670Z,4.75
2022-10-02T01:55:02.406Z,4.30
2022-10-02T01:58:01.497Z,5.05
2022-10-02T02:00:31.268Z,5.28
2022-10-02T02:03:06.527Z,5.47
2022-10-02T02:05:49.542Z,4.10
2022-10-02T02:08:41.914Z,5.00
2022-10-02T02:11:17.034Z,5.45
2022-10-02T02:13:52.426Z,5.07
2022-10-02T02:16:32.971Z,5.28
2022-10-02T02:19:13.781Z,5.43
2022-10-02T02:21:44.138Z,4.50
2022-10-02T02:24:14.597Z,5.10
2022-10-02T02:26:43.658Z,4.90
2022-10-02T02:29:11.538Z,5.53
2022-10-02T02:31:47.316Z,5.38
2022-10-02T02:34:21.520Z,5.03
2022-10-02T02:36:51.511Z,4.93
2022-10-02T02:39:34.154Z,4.80
2022-10-02T02:42:03.522Z,6.00
2022-10-02T02:44:38.386Z,4.38
2022-10-02T02:47:12.699Z,5.50
2022-10-02T02:49:50.129Z,5.20
2022-10-02T02:52:47.693Z,4.70
2022-10-02T02:55:25.182Z,4.63
2022-10-02T02:57:59.031Z,5.60
2022-10-02T03:00:25.870Z,5.20
2022-10-02T03:02:54.502Z,5.28
2022-10-02T03:05:22.674Z,4.95
2022-10-02T03:08:02.047Z,5.10
2022-10-02T03:10:49.473Z,4.97
2022-10-02T03:13:16.094Z,5.57
2022-10-02T03:15:54.657Z,5.53
2022-10-02T03:19:02.344Z,5.60
2022-10-02T03:21:39.078Z,5.15
2022-10-02T03:24:21.330Z,5.68
2022-10-02T03:26:55.700Z,4.60
2022-10-02T03:29:28.298Z,4.55
2022-10-02T03:31:55.729Z,4.80
2022-10-02T03:34:24.022Z,4.60
2022-10-02T03:36:50.934Z,5.38
2022-10-02T03:39:25.125Z,4.63
2022-10-02T03:41:51.987Z,5.07
2022-10-02T03:44:18.526Z,5.85
2022-10-02T03:46:45.171Z,5.95
2022-10-02T03:49:11.717Z,5.78
2022-10-02T03:51:38.216Z,5.18
2022-10-02T03:54:13.737Z,6.10
2022-10-02T03:56:56.686Z,5.85
2022-10-02T03:59:46.937Z,6.68
2022-10-02T04:02:21.262Z,7.32
2022-10-02T04:04:56.403Z,6.38
2022-10-02T04:07:28.831Z,7.97
2022-10-02T04:10:16.845Z,7.22
2022-10-02T04:12:50.491Z,5.40
2022-10-02T04:15:23.458Z,5.00
2022-10-02T04:18:00.042Z,5.07
2022-10-02T04:20:31.620Z,3.30
2022-10-02T04:23:04.062Z,2.75
2022-10-02T04:25:34.772Z,2.58
2022-10-02T04:28:30.344Z,2.55
2022-10-02T04:30:56.929Z,2.72
2022-10-02T04:33:24.731Z,2.88
2022-10-02T04:36:07.857Z,2.70
2022-10-02T04:38:46.207Z,4.15
2022-10-02T04:41:31.554Z,3.55
2022-10-02T04:44:06.979Z,4.25
2022-10-02T04:46:55.133Z,3.40
2022-10-02T04:50:01.421Z,3.95
2022-10-02T04:52:33.922Z,4.70
2022-10-02T04:55:12.112Z,5.18
2022-10-02T04:57:57.936Z,5.68
2022-10-02T05:00:25.557Z,5.90
2022-10-02T05:03:06.834Z,6.55
2022-10-02T05:05:58.674Z,6.85
2022-10-02T05:08:40.039Z,7.00
2022-10-02T05:11:18.655Z,6.40
2022-10-02T05:13:52.327Z,5.95
2022-10-02T05:16:52.594Z,7.22
2022-10-02T05:19:31.067Z,7.47
2022-10-02T05:22:29.800Z,6.22
2022-10-02T05:25:31.533Z,5.90
2022-10-02T05:28:13.356Z,5.68
2022-10-02T05:30:54.967Z,5.32
2022-10-02T05:33:41.776Z,5.57
2022-10-02T05:36:30.340Z,5.22
2022-10-02T05:39:07.123Z,6.07
2022-10-02T05:41:33.545Z,4.90
2022-10-02T05:44:07.865Z,4.65
2022-10-02T05:46:44.110Z,5.70
2022-10-02T05:49:27.554Z,6.20
2022-10-02T05:51:59.628Z,5.13
2022-10-02T05:54:35.676Z,5.50
2022-10-02T05:57:12.208Z,6.72
2022-10-02T05:59:41.603Z,6.75
2022-10-02T06:02:35.579Z,7.20
2022-10-02T06:05:18.752Z,7.63
2022-10-02T06:07:47.711Z,8.77
2022-10-02T06:10:19.214Z,9.40
2022-10-02T06:12:58.754Z,9.48
2022-10-02T06:15:55.899Z,10.00
2022-10-02T06:18:25.743Z,8.93
2022-10-02T06:21:32.688Z,9.02
2022-10-02T06:24:04.151Z,10.18
2022-10-02T06:26:42.462Z,10.32
2022-10-02T06:29:27.011Z,11.02
2022-10-02T06:32:18.271Z,9.10
2022-10-02T06:34:47.928Z,9.30
2022-10-02T06:37:33.511Z,8.25
2022-10-02T06:40:24.486Z,9.70
2022-10-02T06:43:19.963Z,10.20
2022-10-02T06:45:58.680Z,10.32
2022-10-02T06:48:33.659Z,10.38
2022-10-02T06:51:18.728Z,10.40
2022-10-02T06:54:00.370Z,10.65
2022-10-02T06:56:45.386Z,9.82
2022-10-02T06:59:41.925Z,9.48
2022-10-02T07:02:22.988Z,9.40
2022-10-02T07:05:20.253Z,10.13
2022-10-02T07:07:49.891Z,9.40
2022-10-02T07:10:22.746Z,10.02
2022-10-02T07:13:13.523Z,9.70
2022-10-02T07:16:00.732Z,10.27
2022-10-02T07:19:05.096Z,9.10
2022-10-02T07:21:39.014Z,9.27
2022-10-02T07:24:20.610Z,9.80
2022-10-02T07:26:51.226Z,9.23
2022-10-02T07:29:25.985Z,9.05
2022-10-02T07:32:24.657Z,10.02
2022-10-02T07:35:03.970Z,9.23
2022-10-02T07:38:06.115Z,10.05
2022-10-02T07:40:38.289Z,10.32
2022-10-02T07:43:10.527Z,11.32
2022-10-02T07:45:42.643Z,11.10
2022-10-02T07:48:34.021Z,10.38
2022-10-02T07:51:32.387Z,12.43
2022-10-02T07:54:12.547Z,12.55
2022-10-02T07:56:39.842Z,14.00
2022-10-02T07:59:11.125Z,12.20
2022-10-02T08:04:10.230Z,11.88
2022-10-02T08:06:37.248Z,11.57
2022-10-02T08:09:12.638Z,11.65
2022-10-02T08:11:48.586Z,11.32
2022-10-02T08:14:23.318Z,11.32
2022-10-02T08:16:52.265Z,10.02
2022-10-02T08:19:34.856Z,9.98
2022-10-02T08:22:10.057Z,10.80
2022-10-02T08:24:40.219Z,10.43
2022-10-02T08:27:15.385Z,10.70
2022-10-02T08:29:50.715Z,9.75
2022-10-02T08:32:17.298Z,9.48
2022-10-02T08:34:44.103Z,10.43
2022-10-02T08:37:30.580Z,9.32
2022-10-02T08:40:25.675Z,9.65
2022-10-02T08:43:22.766Z,9.55
2022-10-02T08:46:22.550Z,9.23
2022-10-02T08:49:19.330Z,10.45
2022-10-02T08:52:19.914Z,9.25
2022-10-02T08:55:07.527Z,9.65
2022-10-02T08:58:11.556Z,10.38
2022-10-02T09:00:49.590Z,9.50
2022-10-02T09:03:51.061Z,9.10
2022-10-02T09:06:59.188Z,9.77
2022-10-02T09:09:46.653Z,8.30
2022-10-02T09:12:37.849Z,7.60
2022-10-02T09:15:38.762Z,7.90
2022-10-02T09:18:14.256Z,8.13
2022-10-02T09:21:12.478Z,6.63
2022-10-02T09:24:01.008Z,6.72
2022-10-02T09:26:45.628Z,6.40
2022-10-02T09:29:40.634Z,6.03
2022-10-02T09:32:18.719Z,5.82
2022-10-02T09:35:08.887Z,6.10
2022-10-02T09:37:55.254Z,5.90
2022-10-02T09:40:43.421Z,5.97
2022-10-02T09:43:28.345Z,5.25
2022-10-02T09:46:26.681Z,6.05
2022-10-02T09:49:13.408Z,5.32
2022-10-02T09:52:03.410Z,5.32
2022-10-02T09:54:54.472Z,4.40
2022-10-02T09:57:35.756Z,5.70
2022-10-02T10:00:31.820Z,5.80
2022-10-02T10:03:07.636Z,5.03
2022-10-02T10:05:38.550Z,5.38
2022-10-02T10:08:08.094Z,4.70
2022-10-02T10:11:01.323Z,4.88
2022-10-02T10:13:53.897Z,4.97
2022-10-02T10:16:23.278Z,5.05
2022-10-02T10:19:32.786Z,5.00
2022-10-02T10:22:26.578Z,5.53
2022-10-02T10:25:28.269Z,5.38
2022-10-02T10:30:50.223Z,5.20
2022-10-02T10:33:54.120Z,4.30
2022-10-02T10:37:09.601Z,4.25
2022-10-02T10:40:07.226Z,4.43
2022-10-02T10:43:16.613Z,4.25
2022-10-02T10:46:10.721Z,4.43
2022-10-02T10:49:00.419Z,4.57
2022-10-02T10:51:32.425Z,4.80
2022-10-02T10:54:17.408Z,4.50
2022-10-02T10:57:11.209Z,4.30
2022-10-02T10:59:56.248Z,3.88
2022-10-02T11:03:06.417Z,3.67
2022-10-02T11:06:22.029Z,3.78
2022-10-02T11:09:16.218Z,3.28
2022-10-02T11:12:10.174Z,3.47
2022-10-02T11:14:51.077Z,3.78
2022-10-02T11:17:32.822Z,3.17
2022-10-02T11:20:08.571Z,3.80
2022-10-02T11:22:58.966Z,2.85
2022-10-02T11:25:34.034Z,3.83
2022-10-02T11:28:22.423Z,3.63
2022-10-02T11:31:10.640Z,3.40
2022-10-02T11:34:03.033Z,4.00
2022-10-02T11:37:13.793Z,3.63
2022-10-02T11:40:12.982Z,3.20
2022-10-02T11:42:48.668Z,4.10
2022-10-02T11:45:47.902Z,4.20
2022-10-02T11:48:27.859Z,3.30
2022-10-02T11:51:23.669Z,3.20
2022-10-02T11:53:52.838Z,2.95
2022-10-02T11:57:00.454Z,3.40
2022-10-02T11:59:39.025Z,3.10
2022-10-02T12:02:16.660Z,2.90
2022-10-02T12:04:57.418Z,3.25
2022-10-02T12:07:34.013Z,3.33
2022-10-02T12:10:15.602Z,3.22
2022-10-02T12:12:57.478Z,3.15
2022-10-02T12:15:26.787Z,2.63
2022-10-02T12:18:25.469Z,2.70
2022-10-02T12:21:48.890Z,3.45
2022-10-02T12:24:58.876Z,2.97
2022-10-02T12:28:11.734Z,3.00
2022-10-02T12:30:43.778Z,2.75
2022-10-02T12:33:22.210Z,2.80
2022-10-02T12:36:07.014Z,3.30
2022-10-02T12:38:50.910Z,2.75
2022-10-02T12:41:34.040Z,2.70
2022-10-02T12:44:11.264Z,3.17
2022-10-02T12:47:10.935Z,4.13
2022-10-02T12:49:45.607Z,3.40
2022-10-02T12:52:40.532Z,3.20
2022-10-02T12:55:57.126Z,3.08
2022-10-02T12:58:35.886Z,3.22
2022-10-02T13:01:31.698Z,3.47
2022-10-02T13:04:09.602Z,2.90
2022-10-02T13:07:13.864Z,3.03
2022-10-02T13:09:55.495Z,3.63
2022-10-02T13:12:32.666Z,3.95
2022-10-02T13:15:08.820Z,3.92
2022-10-02T13:18:03.050Z,4.85
2022-10-02T13:20:44.631Z,6.00
2022-10-02T13:23:23.222Z,3.95
2022-10-02T13:26:00.730Z,3.20
2022-10-02T13:28:59.593Z,4.20
2022-10-02T13:31:44.791Z,3.50
2022-10-02T13:34:38.302Z,3.40
2022-10-02T13:37:17.282Z,3.95
2022-10-02T13:40:15.850Z,4.53
2022-10-02T13:42:55.324Z,3.40
2022-10-02T13:45:42.526Z,2.95
2022-10-02T13:48:44.124Z,2.88
2022-10-02T13:54:09.002Z,3.05
2022-10-02T13:56:47.469Z,3.03
2022-10-02T13:59:37.540Z,2.83
2022-10-02T14:02:27.819Z,3.10
2022-10-02T14:05:05.589Z,3.40
2022-10-02T14:08:11.038Z,4.07
2022-10-02T14:10:43.930Z,2.97
2022-10-02T14:13:23.398Z,4.20
2022-10-02T14:16:09.283Z,3.13
2022-10-02T14:19:20.113Z,2.65
2022-10-02T14:22:07.833Z,2.83
2022-10-02T14:25:07.931Z,2.92
2022-10-02T14:28:12.348Z,2.63
2022-10-02T14:31:00.385Z,2.72
2022-10-02T14:34:00.164Z,3.33
2022-10-02T14:36:32.864Z,3.90
2022-10-02T14:39:07.572Z,2.85
2022-10-02T14:42:10.676Z,3.15
2022-10-02T14:44:48.983Z,2.70
2022-10-02T14:47:43.251Z,2.92
2022-10-02T14:50:32.592Z,3.53
2022-10-02T14:53:17.853Z,2.88
2022-10-02T14:56:08.425Z,2.95
2022-10-02T14:58:50.498Z,3.53
2022-10-02T15:01:22.178Z,2.65
2022-10-02T15:04:07.956Z,3.20
2022-10-02T15:07:04.288Z,4.03
2022-10-02T15:10:09.663Z,2.55
2022-10-02T15:12:36.142Z,2.55
2022-10-02T15:15:11.530Z,3.10
2022-10-02T15:18:10.230Z,2.55
2022-10-02T15:20:51.308Z,3.08
2022-10-02T15:23:44.856Z,3.38
2022-10-02T15:26:30.108Z,2.67
2022-10-02T15:29:28.268Z,3.15
2022-10-02T15:32:18.251Z,2.40
2022-10-02T15:34:57.882Z,2.95
2022-10-02T15:37:39.253Z,2.63
2022-10-02T15:40:20.954Z,3.65
2022-10-02T15:42:58.157Z,2.33
2022-10-02T15:45:56.446Z,2.63
2022-10-02T15:48:52.401Z,3.42
2022-10-02T15:51:32.227Z,2.83
2022-10-02T15:54:10.797Z,2.72
2022-10-02T15:57:15.584Z,3.05
2022-10-02T15:59:53.104Z,2.80
2022-10-02T16:02:58.473Z,3.05
2022-10-02T16:05:45.786Z,2.88
2022-10-02T16:08:40.274Z,2.53
2022-10-02T16:11:16.518Z,2.35
2022-10-02T16:14:02.010Z,2.40
2022-10-02T16:16:37.766Z,2.63
2022-10-02T16:19:35.505Z,3.00
2022-10-02T16:22:17.731Z,3.50
2022-10-02T16:25:20.647Z,3.50
2022-10-02T16:27:55.663Z,3.10
2022-10-02T16:30:24.125Z,3.28
2022-10-02T16:33:09.200Z,3.40
2022-10-02T16:35:58.860Z,2.70
2022-10-02T16:38:28.683Z,2.78
2022-10-02T16:41:11.190Z,2.25
2022-10-02T16:43:54.310Z,3.55
2022-10-02T16:46:51.932Z,3.30
2022-10-02T16:49:52.093Z,3.40
2022-10-02T16:52:30.651Z,2.88
2022-10-02T16:55:24.880Z,3.65
2022-10-02T16:58:09.331Z,3.78
2022-10-02T17:00:54.599Z,3.72
2022-10-02T17:03:35.685Z,3.90
2022-10-02T17:06:15.934Z,4.38
2022-10-02T17:08:58.780Z,3.80
2022-10-02T17:11:28.120Z,3.80
2022-10-02T17:14:01.765Z,3.28
2022-10-02T17:16:36.674Z,3.90
2022-10-02T17:19:17.959Z,3.10
2022-10-02T17:21:50.311Z,3.17
2022-10-02T17:24:36.825Z,2.80
2022-10-02T17:27:09.180Z,2.95
2022-10-02T17:29:54.880Z,2.53
2022-10-02T17:32:48.124Z,2.75
2022-10-02T17:35:31.638Z,3.10
2022-10-02T17:38:11.500Z,2.88
2022-10-02T17:41:06.421Z,2.85
2022-10-02T17:43:42.639Z,2.72
2022-10-02T17:46:18.799Z,2.95
2022-10-02T17:48:58.028Z,3.58
2022-10-02T17:51:58.238Z,2.60
2022-10-02T17:54:56.514Z,3.00
2022-10-02T17:57:47.194Z,2.65
2022-10-02T18:00:19.472Z,2.72
2022-10-02T18:03:15.115Z,2.67
2022-10-02T18:05:53.481Z,2.13
2022-10-02T18:08:42.855Z,3.22
2022-10-02T18:11:23.663Z,2.22
2022-10-02T18:14:13.259Z,3.33
2022-10-02T18:16:54.134Z,2.10
2022-10-02T18:19:30.404Z,2.75
2022-10-02T18:22:36.637Z,1.90
2022-10-02T18:25:32.424Z,1.90
2022-10-02T18:28:08.089Z,2.75
2022-10-02T18:31:01.250Z,2.90
2022-10-02T18:33:56.838Z,2.50
2022-10-02T18:36:29.377Z,3.00
2022-10-02T18:39:01.931Z,3.53
2022-10-02T18:41:55.398Z,3.40
2022-10-02T18:44:41.992Z,3.15
2022-10-02T18:47:20.468Z,4.55
2022-10-02T18:49:56.805Z,4.82
2022-10-02T18:52:41.818Z,4.70
2022-10-02T18:55:26.417Z,4.03
2022-10-02T18:58:20.582Z,3.20
2022-10-02T19:01:01.952Z,2.75
2022-10-02T19:06:09.572Z,3.55
2022-10-02T19:08:55.100Z,2.92
2022-10-02T19:11:28.124Z,3.22
2022-10-02T19:13:55.169Z,2.80
2022-10-02T19:16:25.793Z,3.58
2022-10-02T19:19:12.002Z,3.15
2022-10-02T19:21:41.100Z,3.58
2022-10-02T19:24:16.959Z,2.92
2022-10-02T19:26:46.967Z,2.97
2022-10-02T19:29:32.320Z,3.85
2022-10-02T19:32:01.098Z,3.45
2022-10-02T19:34:31.836Z,3.05
2022-10-02T19:37:00.688Z,3.35
2022-10-02T19:39:41.356Z,3.70
2022-10-02T19:42:13.301Z,4.72
2022-10-02T19:44:45.462Z,3.55
2022-10-02T19:47:34.869Z,3.08
2022-10-02T19:50:02.481Z,4.38
2022-10-02T19:52:46.861Z,3.45
2022-10-02T19:55:36.615Z,3.65
2022-10-02T19:58:07.966Z,3.95
2022-10-02T20:03:08.670Z,3.35
2022-10-02T20:05:35.683Z,3.85
2022-10-02T20:08:07.390Z,3.83
2022-10-02T20:10:40.068Z,4.60
2022-10-02T20:13:47.348Z,4.00
2022-10-02T20:16:44.623Z,3.90
2022-10-02T20:19:17.613Z,3.42
2022-10-02T20:21:58.384Z,4.10
2022-10-02T20:24:31.680Z,4.75
2022-10-02T20:27:01.894Z,4.03
2022-10-02T20:29:34.276Z,3.67
2022-10-02T20:32:28.505Z,3.97
2022-10-02T20:35:11.719Z,4.00
2022-10-02T20:37:41.276Z,4.25
2022-10-02T20:40:18.207Z,3.55
2022-10-02T20:43:09.810Z,3.63
2022-10-02T20:48:43.750Z,3.85
2022-10-02T20:51:45.025Z,4.15
2022-10-02T20:54:43.692Z,4.45
2022-10-02T20:57:33.679Z,4.18
2022-10-02T21:00:16.779Z,3.28
2022-10-02T21:02:49.595Z,3.75
2022-10-02T21:05:41.111Z,4.57
2022-10-02T21:11:16.818Z,3.83
2022-10-02T21:13:55.838Z,4.72
2022-10-02T21:16:41.967Z,4.60
2022-10-02T21:19:51.647Z,4.28
2022-10-02T21:25:09.210Z,4.78
2022-10-02T21:27:43.269Z,7.47
2022-10-02T21:30:32.110Z,9.15
2022-10-02T21:34:03.332Z,9.07
2022-10-02T21:40:13.684Z,7.20
2022-10-02T21:43:29.764Z,9.00
2022-10-02T21:46:55.482Z,6.75
2022-10-02T21:49:42.939Z,5.53
2022-10-02T21:52:27.513Z,6.43
2022-10-02T21:55:15.119Z,5.63
2022-10-02T21:58:22.178Z,6.63
2022-10-02T22:00:59.353Z,5.82
2022-10-02T22:03:45.577Z,6.75
2022-10-02T22:06:30.730Z,10.60
2022-10-02T22:09:31.044Z,10.25
2022-10-02T22:12:14.174Z,9.45
2022-10-02T22:14:47.662Z,11.43
2022-10-02T22:17:39.642Z,11.00
2022-10-02T22:20:29.395Z,11.52
2022-10-02T22:23:10.932Z,9.32
2022-10-02T22:25:52.019Z,7.97
2022-10-02T22:28:18.587Z,6.13
2022-10-02T22:31:07.564Z,9.77
2022-10-02T22:33:44.010Z,8.68
2022-10-02T22:36:17.066Z,7.18
2022-10-02T22:38:49.195Z,6.97
2022-10-02T22:41:16.120Z,7.72
2022-10-02T22:43:51.854Z,7.38
2022-10-02T22:46:48.271Z,7.93
2022-10-02T22:49:27.095Z,5.65
2022-10-02T22:52:20.551Z,6.05
2022-10-02T22:55:06.838Z,5.75
2022-10-02T22:57:39.204Z,5.47
2022-10-02T23:00:25.129Z,5.68
2022-10-02T23:03:22.935Z,4.82
2022-10-02T23:05:56.764Z,4.70
2022-10-02T23:08:44.056Z,5.28
2022-10-02T23:11:16.070Z,5.57
2022-10-02T23:13:46.642Z,5.72
2022-10-02T23:16:35.123Z,5.50
2022-10-02T23:19:22.765Z,5.80
2022-10-02T23:21:53.481Z,5.80
2022-10-02T23:24:30.560Z,6.10
2022-10-02T23:27:02.931Z,6.25
2022-10-02T23:29:59.137Z,6.30
2022-10-02T23:32:44.425Z,7.35
2022-10-02T23:35:21.410Z,5.72
2022-10-02T23:37:57.257Z,7.55
2022-10-02T23:40:51.970Z,6.53
2022-10-02T23:43:34.330Z,6.07
2022-10-02T23:46:09.888Z,6.40
2022-10-02T23:48:37.549Z,6.03
2022-10-02T23:51:14.966Z,5.97
2022-10-02T23:54:11.075Z,6.20
2022-10-02T23:57:06.157Z,5.95
2022-10-02T23:59:55.213Z,6.13
